sensor_id;sensor_type;location;lat;lon;timestamp;P1;durP1;ratioP1;P2;durP2;ratioP2
58581;SDS011;44361;51.476;5.700;2022-12-01T00:00:57;63.33;;;23.17;;
58581;SDS011;44361;51.476;5.700;2022-12-01T00:03:23;57.85;;;23.45;;
58581;SDS011;44361;51.476;5.700;2022-12-01T00:08:28;59.42;;;22.20;;
58581;SDS011;44361;51.476;5.700;2022-12-01T00:10:54;59.40;;;22.48;;
58581;SDS011;44361;51.476;5.700;2022-12-01T00:13:20;67.10;;;24.70;;
58581;SDS011;44361;51.476;5.700;2022-12-01T00:15:45;63.25;;;24.17;;
58581;SDS011;44361;51.476;5.700;2022-12-01T00:18:11;71.47;;;25.23;;
58581;SDS011;44361;51.476;5.700;2022-12-01T00:20:37;73.50;;;25.95;;
58581;SDS011;44361;51.476;5.700;2022-12-01T00:23:04;72.00;;;25.85;;
58581;SDS011;44361;51.476;5.700;2022-12-01T00:25:30;74.53;;;26.10;;
58581;SDS011;44361;51.476;5.700;2022-12-01T00:27:56;76.90;;;27.42;;
58581;SDS011;44361;51.476;5.700;2022-12-01T00:30:21;77.40;;;26.30;;
58581;SDS011;44361;51.476;5.700;2022-12-01T00:32:47;87.05;;;28.60;;
58581;SDS011;44361;51.476;5.700;2022-12-01T00:35:13;80.55;;;28.23;;
58581;SDS011;44361;51.476;5.700;2022-12-01T00:37:39;82.07;;;28.95;;
58581;SDS011;44361;51.476;5.700;2022-12-01T00:40:05;87.82;;;28.73;;
58581;SDS011;44361;51.476;5.700;2022-12-01T00:42:32;95.13;;;28.48;;
58581;SDS011;44361;51.476;5.700;2022-12-01T00:44:57;89.18;;;28.48;;
58581;SDS011;44361;51.476;5.700;2022-12-01T00:47:23;98.88;;;32.70;;
58581;SDS011;44361;51.476;5.700;2022-12-01T00:49:48;96.30;;;28.98;;
58581;SDS011;44361;51.476;5.700;2022-12-01T00:52:16;93.35;;;29.50;;
58581;SDS011;44361;51.476;5.700;2022-12-01T00:54:42;99.75;;;29.42;;
58581;SDS011;44361;51.476;5.700;2022-12-01T00:57:07;95.80;;;29.45;;
58581;SDS011;44361;51.476;5.700;2022-12-01T00:59:33;91.70;;;29.35;;
58581;SDS011;44361;51.476;5.700;2022-12-01T01:01:59;93.63;;;28.58;;
58581;SDS011;44361;51.476;5.700;2022-12-01T01:04:28;91.05;;;30.45;;
58581;SDS011;44361;51.476;5.700;2022-12-01T01:06:54;88.93;;;29.17;;
58581;SDS011;44361;51.476;5.700;2022-12-01T01:09:20;92.53;;;28.98;;
58581;SDS011;44361;51.476;5.700;2022-12-01T01:11:45;77.60;;;26.48;;
58581;SDS011;44361;51.476;5.700;2022-12-01T01:14:11;85.03;;;28.15;;
58581;SDS011;44361;51.476;5.700;2022-12-01T01:16:36;83.70;;;28.27;;
58581;SDS011;44361;51.476;5.700;2022-12-01T01:19:02;87.50;;;29.30;;
58581;SDS011;44361;51.476;5.700;2022-12-01T01:21:28;81.68;;;27.42;;
58581;SDS011;44361;51.476;5.700;2022-12-01T01:23:53;86.55;;;28.00;;
58581;SDS011;44361;51.476;5.700;2022-12-01T01:26:23;84.80;;;27.67;;
58581;SDS011;44361;51.476;5.700;2022-12-01T01:29:02;71.78;;;27.38;;
58581;SDS011;44361;51.476;5.700;2022-12-01T01:31:30;82.38;;;28.55;;
58581;SDS011;44361;51.476;5.700;2022-12-01T01:33:56;84.22;;;28.08;;
58581;SDS011;44361;51.476;5.700;2022-12-01T01:36:22;81.97;;;27.40;;
58581;SDS011;44361;51.476;5.700;2022-12-01T01:38:48;82.20;;;28.35;;
58581;SDS011;44361;51.476;5.700;2022-12-01T01:41:19;87.93;;;27.02;;
58581;SDS011;44361;51.476;5.700;2022-12-01T01:43:46;89.63;;;28.67;;
58581;SDS011;44361;51.476;5.700;2022-12-01T01:46:14;86.07;;;26.20;;
58581;SDS011;44361;51.476;5.700;2022-12-01T01:48:46;99.18;;;28.35;;
58581;SDS011;44361;51.476;5.700;2022-12-01T01:51:16;78.40;;;27.75;;
58581;SDS011;44361;51.476;5.700;2022-12-01T01:53:45;76.28;;;25.88;;
58581;SDS011;44361;51.476;5.700;2022-12-01T01:56:11;69.80;;;25.92;;
58581;SDS011;44361;51.476;5.700;2022-12-01T01:58:37;77.50;;;25.48;;
58581;SDS011;44361;51.476;5.700;2022-12-01T02:01:04;65.05;;;25.60;;
58581;SDS011;44361;51.476;5.700;2022-12-01T02:03:31;79.65;;;27.58;;
58581;SDS011;44361;51.476;5.700;2022-12-01T02:05:57;84.78;;;27.67;;
58581;SDS011;44361;51.476;5.700;2022-12-01T02:08:23;84.15;;;26.35;;
58581;SDS011;44361;51.476;5.700;2022-12-01T02:17:08;81.90;;;26.33;;
58581;SDS011;44361;51.476;5.700;2022-12-01T02:30:13;77.82;;;26.98;;
58581;SDS011;44361;51.476;5.700;2022-12-01T02:35:39;83.05;;;25.95;;
58581;SDS011;44361;51.476;5.700;2022-12-01T02:41:07;79.18;;;27.83;;
58581;SDS011;44361;51.476;5.700;2022-12-01T02:43:42;90.93;;;27.83;;
58581;SDS011;44361;51.476;5.700;2022-12-01T02:48:56;75.40;;;26.42;;
58581;SDS011;44361;51.476;5.700;2022-12-01T02:51:30;86.32;;;28.27;;
58581;SDS011;44361;51.476;5.700;2022-12-01T02:53:58;80.32;;;27.63;;
58581;SDS011;44361;51.476;5.700;2022-12-01T02:56:25;91.80;;;27.67;;
58581;SDS011;44361;51.476;5.700;2022-12-01T02:58:51;80.38;;;26.52;;
58581;SDS011;44361;51.476;5.700;2022-12-01T03:04:07;90.43;;;28.63;;
58581;SDS011;44361;51.476;5.700;2022-12-01T03:06:37;83.20;;;27.38;;
58581;SDS011;44361;51.476;5.700;2022-12-01T03:09:16;87.45;;;28.40;;
58581;SDS011;44361;51.476;5.700;2022-12-01T03:14:46;93.22;;;29.52;;
58581;SDS011;44361;51.476;5.700;2022-12-01T03:17:28;94.28;;;29.65;;
58581;SDS011;44361;51.476;5.700;2022-12-01T03:20:10;94.28;;;27.50;;
58581;SDS011;44361;51.476;5.700;2022-12-01T03:22:41;78.50;;;27.42;;
58581;SDS011;44361;51.476;5.700;2022-12-01T03:25:13;82.20;;;28.25;;
58581;SDS011;44361;51.476;5.700;2022-12-01T03:27:41;82.60;;;26.98;;
58581;SDS011;44361;51.476;5.700;2022-12-01T03:30:09;82.00;;;28.60;;
58581;SDS011;44361;51.476;5.700;2022-12-01T03:32:37;81.78;;;27.42;;
58581;SDS011;44361;51.476;5.700;2022-12-01T03:35:12;75.60;;;25.52;;
58581;SDS011;44361;51.476;5.700;2022-12-01T03:37:58;84.03;;;26.42;;
58581;SDS011;44361;51.476;5.700;2022-12-01T03:40:44;78.63;;;27.55;;
58581;SDS011;44361;51.476;5.700;2022-12-01T03:43:15;91.97;;;28.13;;
58581;SDS011;44361;51.476;5.700;2022-12-01T03:48:43;85.70;;;27.43;;
58581;SDS011;44361;51.476;5.700;2022-12-01T03:56:32;79.35;;;28.33;;
58581;SDS011;44361;51.476;5.700;2022-12-01T03:59:02;92.30;;;28.02;;
58581;SDS011;44361;51.476;5.700;2022-12-01T04:01:34;91.07;;;29.38;;
58581;SDS011;44361;51.476;5.700;2022-12-01T04:04:03;85.28;;;27.70;;
58581;SDS011;44361;51.476;5.700;2022-12-01T04:06:34;88.35;;;28.60;;
58581;SDS011;44361;51.476;5.700;2022-12-01T04:09:00;85.82;;;27.23;;
58581;SDS011;44361;51.476;5.700;2022-12-01T04:11:26;89.72;;;28.80;;
58581;SDS011;44361;51.476;5.700;2022-12-01T04:14:10;92.65;;;28.90;;
58581;SDS011;44361;51.476;5.700;2022-12-01T04:16:36;83.95;;;27.08;;
58581;SDS011;44361;51.476;5.700;2022-12-01T04:19:01;81.70;;;26.75;;
58581;SDS011;44361;51.476;5.700;2022-12-01T04:21:27;87.53;;;27.63;;
58581;SDS011;44361;51.476;5.700;2022-12-01T04:23:52;85.45;;;26.98;;
58581;SDS011;44361;51.476;5.700;2022-12-01T04:26:23;84.50;;;26.63;;
58581;SDS011;44361;51.476;5.700;2022-12-01T04:28:49;75.88;;;28.00;;
58581;SDS011;44361;51.476;5.700;2022-12-01T04:31:15;83.25;;;27.42;;
58581;SDS011;44361;51.476;5.700;2022-12-01T04:33:40;81.53;;;28.02;;
58581;SDS011;44361;51.476;5.700;2022-12-01T04:36:06;87.25;;;29.02;;
58581;SDS011;44361;51.476;5.700;2022-12-01T04:38:32;81.22;;;26.83;;
58581;SDS011;44361;51.476;5.700;2022-12-01T04:40:57;73.15;;;27.15;;
58581;SDS011;44361;51.476;5.700;2022-12-01T04:43:23;79.07;;;25.88;;
58581;SDS011;44361;51.476;5.700;2022-12-01T04:45:48;77.95;;;27.05;;
58581;SDS011;44361;51.476;5.700;2022-12-01T04:48:14;71.03;;;26.17;;
58581;SDS011;44361;51.476;5.700;2022-12-01T04:50:39;71.05;;;25.23;;
58581;SDS011;44361;51.476;5.700;2022-12-01T04:53:05;72.53;;;25.30;;
58581;SDS011;44361;51.476;5.700;2022-12-01T04:55:31;74.05;;;26.30;;
58581;SDS011;44361;51.476;5.700;2022-12-01T04:58:00;65.05;;;25.13;;
58581;SDS011;44361;51.476;5.700;2022-12-01T05:00:28;60.88;;;23.52;;
58581;SDS011;44361;51.476;5.700;2022-12-01T05:02:54;64.90;;;24.00;;
58581;SDS011;44361;51.476;5.700;2022-12-01T05:05:20;72.35;;;24.83;;
58581;SDS011;44361;51.476;5.700;2022-12-01T05:07:45;63.78;;;23.23;;
58581;SDS011;44361;51.476;5.700;2022-12-01T05:10:11;68.45;;;25.90;;
58581;SDS011;44361;51.476;5.700;2022-12-01T05:12:38;70.97;;;25.02;;
58581;SDS011;44361;51.476;5.700;2022-12-01T05:15:05;68.38;;;24.13;;
58581;SDS011;44361;51.476;5.700;2022-12-01T05:17:31;70.57;;;24.88;;
58581;SDS011;44361;51.476;5.700;2022-12-01T05:19:57;66.60;;;24.67;;
58581;SDS011;44361;51.476;5.700;2022-12-01T05:22:41;61.97;;;22.45;;
58581;SDS011;44361;51.476;5.700;2022-12-01T05:25:06;68.10;;;23.63;;
58581;SDS011;44361;51.476;5.700;2022-12-01T05:27:32;65.35;;;23.33;;
58581;SDS011;44361;51.476;5.700;2022-12-01T05:29:58;66.10;;;22.42;;
58581;SDS011;44361;51.476;5.700;2022-12-01T05:32:23;60.75;;;23.35;;
58581;SDS011;44361;51.476;5.700;2022-12-01T05:34:49;58.75;;;22.58;;
58581;SDS011;44361;51.476;5.700;2022-12-01T05:37:14;58.70;;;23.65;;
58581;SDS011;44361;51.476;5.700;2022-12-01T05:39:40;63.53;;;24.00;;
58581;SDS011;44361;51.476;5.700;2022-12-01T05:42:05;61.47;;;22.25;;
58581;SDS011;44361;51.476;5.700;2022-12-01T05:44:31;57.67;;;22.35;;
58581;SDS011;44361;51.476;5.700;2022-12-01T05:46:56;65.00;;;23.02;;
58581;SDS011;44361;51.476;5.700;2022-12-01T05:49:22;64.07;;;24.95;;
58581;SDS011;44361;51.476;5.700;2022-12-01T05:51:47;57.42;;;22.45;;
58581;SDS011;44361;51.476;5.700;2022-12-01T05:54:13;61.72;;;24.27;;
58581;SDS011;44361;51.476;5.700;2022-12-01T05:56:40;57.60;;;21.55;;
58581;SDS011;44361;51.476;5.700;2022-12-01T05:59:05;55.22;;;21.80;;
58581;SDS011;44361;51.476;5.700;2022-12-01T06:01:31;52.83;;;21.25;;
58581;SDS011;44361;51.476;5.700;2022-12-01T06:03:57;56.40;;;22.08;;
58581;SDS011;44361;51.476;5.700;2022-12-01T06:06:22;59.22;;;21.67;;
58581;SDS011;44361;51.476;5.700;2022-12-01T06:08:48;53.80;;;20.77;;
58581;SDS011;44361;51.476;5.700;2022-12-01T06:11:13;49.10;;;21.55;;
58581;SDS011;44361;51.476;5.700;2022-12-01T06:13:39;55.70;;;22.40;;
58581;SDS011;44361;51.476;5.700;2022-12-01T06:16:04;55.22;;;22.15;;
58581;SDS011;44361;51.476;5.700;2022-12-01T06:18:34;55.17;;;22.23;;
58581;SDS011;44361;51.476;5.700;2022-12-01T06:21:02;53.65;;;20.55;;
58581;SDS011;44361;51.476;5.700;2022-12-01T06:23:28;44.72;;;20.88;;
58581;SDS011;44361;51.476;5.700;2022-12-01T06:25:54;53.38;;;21.65;;
58581;SDS011;44361;51.476;5.700;2022-12-01T06:28:19;53.85;;;21.45;;
58581;SDS011;44361;51.476;5.700;2022-12-01T06:30:45;52.88;;;20.63;;
58581;SDS011;44361;51.476;5.700;2022-12-01T06:33:10;58.47;;;21.63;;
58581;SDS011;44361;51.476;5.700;2022-12-01T06:35:36;50.15;;;20.50;;
58581;SDS011;44361;51.476;5.700;2022-12-01T06:38:02;51.35;;;20.60;;
58581;SDS011;44361;51.476;5.700;2022-12-01T06:40:28;46.28;;;19.83;;
58581;SDS011;44361;51.476;5.700;2022-12-01T06:42:53;46.75;;;20.50;;
58581;SDS011;44361;51.476;5.700;2022-12-01T06:45:19;48.50;;;20.08;;
58581;SDS011;44361;51.476;5.700;2022-12-01T06:47:44;52.63;;;20.35;;
58581;SDS011;44361;51.476;5.700;2022-12-01T06:50:12;50.25;;;19.92;;
58581;SDS011;44361;51.476;5.700;2022-12-01T06:52:37;55.70;;;20.38;;
58581;SDS011;44361;51.476;5.700;2022-12-01T06:55:03;53.40;;;19.83;;
58581;SDS011;44361;51.476;5.700;2022-12-01T06:57:30;53.47;;;19.58;;
58581;SDS011;44361;51.476;5.700;2022-12-01T06:59:56;59.42;;;21.77;;
58581;SDS011;44361;51.476;5.700;2022-12-01T07:02:21;58.33;;;21.60;;
58581;SDS011;44361;51.476;5.700;2022-12-01T07:04:47;58.13;;;21.70;;
58581;SDS011;44361;51.476;5.700;2022-12-01T07:07:13;60.55;;;21.70;;
58581;SDS011;44361;51.476;5.700;2022-12-01T07:09:38;56.25;;;21.38;;
58581;SDS011;44361;51.476;5.700;2022-12-01T07:12:04;60.38;;;22.75;;
58581;SDS011;44361;51.476;5.700;2022-12-01T07:14:30;51.67;;;21.05;;
58581;SDS011;44361;51.476;5.700;2022-12-01T07:16:56;57.85;;;22.02;;
58581;SDS011;44361;51.476;5.700;2022-12-01T07:19:22;62.55;;;21.80;;
58581;SDS011;44361;51.476;5.700;2022-12-01T07:21:48;62.40;;;21.95;;
58581;SDS011;44361;51.476;5.700;2022-12-01T07:24:13;52.90;;;22.10;;
58581;SDS011;44361;51.476;5.700;2022-12-01T07:26:39;62.95;;;23.38;;
58581;SDS011;44361;51.476;5.700;2022-12-01T07:29:05;58.15;;;22.55;;
58581;SDS011;44361;51.476;5.700;2022-12-01T07:31:31;67.22;;;23.95;;
58581;SDS011;44361;51.476;5.700;2022-12-01T07:33:56;69.20;;;23.90;;
58581;SDS011;44361;51.476;5.700;2022-12-01T07:36:22;64.93;;;23.85;;
58581;SDS011;44361;51.476;5.700;2022-12-01T07:38:48;68.70;;;23.30;;
58581;SDS011;44361;51.476;5.700;2022-12-01T07:41:14;57.40;;;23.30;;
58581;SDS011;44361;51.476;5.700;2022-12-01T07:43:43;61.15;;;21.90;;
58581;SDS011;44361;51.476;5.700;2022-12-01T07:46:12;60.00;;;23.17;;
58581;SDS011;44361;51.476;5.700;2022-12-01T07:48:39;74.82;;;24.92;;
58581;SDS011;44361;51.476;5.700;2022-12-01T07:51:05;64.82;;;24.17;;
58581;SDS011;44361;51.476;5.700;2022-12-01T07:53:32;66.68;;;22.45;;
58581;SDS011;44361;51.476;5.700;2022-12-01T07:55:58;54.05;;;21.65;;
58581;SDS011;44361;51.476;5.700;2022-12-01T07:58:24;66.93;;;23.67;;
58581;SDS011;44361;51.476;5.700;2022-12-01T08:00:50;62.50;;;23.45;;
58581;SDS011;44361;51.476;5.700;2022-12-01T08:03:16;60.88;;;24.10;;
58581;SDS011;44361;51.476;5.700;2022-12-01T08:05:41;67.15;;;23.40;;
58581;SDS011;44361;51.476;5.700;2022-12-01T08:08:07;68.18;;;24.67;;
58581;SDS011;44361;51.476;5.700;2022-12-01T08:10:33;53.97;;;22.52;;
58581;SDS011;44361;51.476;5.700;2022-12-01T08:12:59;58.45;;;22.90;;
58581;SDS011;44361;51.476;5.700;2022-12-01T08:15:24;63.60;;;23.73;;
58581;SDS011;44361;51.476;5.700;2022-12-01T08:17:50;61.40;;;24.05;;
58581;SDS011;44361;51.476;5.700;2022-12-01T08:20:16;57.53;;;22.95;;
58581;SDS011;44361;51.476;5.700;2022-12-01T08:22:41;57.40;;;23.02;;
58581;SDS011;44361;51.476;5.700;2022-12-01T08:25:07;61.30;;;23.17;;
58581;SDS011;44361;51.476;5.700;2022-12-01T08:27:33;56.63;;;24.17;;
58581;SDS011;44361;51.476;5.700;2022-12-01T08:29:59;56.75;;;22.52;;
58581;SDS011;44361;51.476;5.700;2022-12-01T08:32:25;59.25;;;24.05;;
58581;SDS011;44361;51.476;5.700;2022-12-01T08:34:53;58.95;;;22.25;;
58581;SDS011;44361;51.476;5.700;2022-12-01T08:37:18;57.65;;;21.73;;
58581;SDS011;44361;51.476;5.700;2022-12-01T08:39:44;61.95;;;24.17;;
58581;SDS011;44361;51.476;5.700;2022-12-01T08:42:10;57.05;;;23.52;;
58581;SDS011;44361;51.476;5.700;2022-12-01T08:44:35;56.88;;;24.58;;
58581;SDS011;44361;51.476;5.700;2022-12-01T08:47:01;63.47;;;24.58;;
58581;SDS011;44361;51.476;5.700;2022-12-01T08:49:26;68.22;;;24.90;;
58581;SDS011;44361;51.476;5.700;2022-12-01T08:51:52;58.63;;;24.77;;
58581;SDS011;44361;51.476;5.700;2022-12-01T08:54:17;62.35;;;25.88;;
58581;SDS011;44361;51.476;5.700;2022-12-01T08:56:43;70.10;;;26.67;;
58581;SDS011;44361;51.476;5.700;2022-12-01T08:59:09;69.53;;;26.25;;
58581;SDS011;44361;51.476;5.700;2022-12-01T09:01:35;71.45;;;29.85;;
58581;SDS011;44361;51.476;5.700;2022-12-01T09:04:16;66.35;;;26.30;;
58581;SDS011;44361;51.476;5.700;2022-12-01T09:06:47;71.97;;;26.48;;
58581;SDS011;44361;51.476;5.700;2022-12-01T09:09:15;64.07;;;26.13;;
58581;SDS011;44361;51.476;5.700;2022-12-01T09:11:46;75.82;;;27.70;;
58581;SDS011;44361;51.476;5.700;2022-12-01T09:14:12;67.75;;;27.80;;
58581;SDS011;44361;51.476;5.700;2022-12-01T09:16:40;59.97;;;25.50;;
58581;SDS011;44361;51.476;5.700;2022-12-01T09:19:07;63.67;;;26.30;;
58581;SDS011;44361;51.476;5.700;2022-12-01T09:21:33;61.45;;;27.23;;
58581;SDS011;44361;51.476;5.700;2022-12-01T09:24:01;69.20;;;26.77;;
58581;SDS011;44361;51.476;5.700;2022-12-01T09:26:28;63.80;;;26.75;;
58581;SDS011;44361;51.476;5.700;2022-12-01T09:28:54;65.95;;;25.80;;
58581;SDS011;44361;51.476;5.700;2022-12-01T09:31:22;64.25;;;25.35;;
58581;SDS011;44361;51.476;5.700;2022-12-01T09:33:47;60.78;;;25.55;;
58581;SDS011;44361;51.476;5.700;2022-12-01T09:36:18;65.40;;;25.58;;
58581;SDS011;44361;51.476;5.700;2022-12-01T09:38:44;65.70;;;26.65;;
58581;SDS011;44361;51.476;5.700;2022-12-01T09:46:39;59.33;;;24.08;;
58581;SDS011;44361;51.476;5.700;2022-12-01T09:49:11;64.07;;;24.52;;
58581;SDS011;44361;51.476;5.700;2022-12-01T09:51:42;50.80;;;22.55;;
58581;SDS011;44361;51.476;5.700;2022-12-01T09:54:09;62.65;;;25.15;;
58581;SDS011;44361;51.476;5.700;2022-12-01T09:56:40;57.38;;;24.63;;
58581;SDS011;44361;51.476;5.700;2022-12-01T09:59:12;52.65;;;24.30;;
58581;SDS011;44361;51.476;5.700;2022-12-01T10:01:53;50.80;;;22.25;;
58581;SDS011;44361;51.476;5.700;2022-12-01T10:04:33;49.63;;;23.15;;
58581;SDS011;44361;51.476;5.700;2022-12-01T10:07:05;53.13;;;20.23;;
58581;SDS011;44361;51.476;5.700;2022-12-01T10:09:50;45.03;;;20.55;;
58581;SDS011;44361;51.476;5.700;2022-12-01T10:12:26;51.45;;;21.17;;
58581;SDS011;44361;51.476;5.700;2022-12-01T10:14:57;49.00;;;21.20;;
58581;SDS011;44361;51.476;5.700;2022-12-01T10:22:45;51.30;;;21.85;;
58581;SDS011;44361;51.476;5.700;2022-12-01T10:25:24;49.53;;;21.25;;
58581;SDS011;44361;51.476;5.700;2022-12-01T10:30:50;51.60;;;21.88;;
58581;SDS011;44361;51.476;5.700;2022-12-01T10:33:21;52.20;;;22.00;;
58581;SDS011;44361;51.476;5.700;2022-12-01T10:35:49;51.20;;;22.23;;
58581;SDS011;44361;51.476;5.700;2022-12-01T10:38:26;59.75;;;23.02;;
58581;SDS011;44361;51.476;5.700;2022-12-01T10:40:54;53.47;;;24.60;;
58581;SDS011;44361;51.476;5.700;2022-12-01T10:43:28;55.15;;;25.05;;
58581;SDS011;44361;51.476;5.700;2022-12-01T10:46:13;55.22;;;23.67;;
58581;SDS011;44361;51.476;5.700;2022-12-01T10:48:51;55.95;;;23.35;;
58581;SDS011;44361;51.476;5.700;2022-12-01T10:51:18;64.05;;;24.48;;
58581;SDS011;44361;51.476;5.700;2022-12-01T10:53:46;59.10;;;25.48;;
58581;SDS011;44361;51.476;5.700;2022-12-01T10:56:19;64.38;;;24.38;;
58581;SDS011;44361;51.476;5.700;2022-12-01T11:01:26;62.50;;;26.30;;
58581;SDS011;44361;51.476;5.700;2022-12-01T11:04:06;63.05;;;25.05;;
58581;SDS011;44361;51.476;5.700;2022-12-01T11:06:49;62.22;;;24.92;;
58581;SDS011;44361;51.476;5.700;2022-12-01T11:09:25;68.47;;;25.65;;
58581;SDS011;44361;51.476;5.700;2022-12-01T11:11:59;60.97;;;25.90;;
58581;SDS011;44361;51.476;5.700;2022-12-01T11:19:54;61.58;;;25.13;;
58581;SDS011;44361;51.476;5.700;2022-12-01T11:22:29;64.50;;;25.48;;
58581;SDS011;44361;51.476;5.700;2022-12-01T11:24:57;71.43;;;25.58;;
58581;SDS011;44361;51.476;5.700;2022-12-01T11:27:29;68.38;;;27.05;;
58581;SDS011;44361;51.476;5.700;2022-12-01T11:29:59;67.15;;;27.05;;
58581;SDS011;44361;51.476;5.700;2022-12-01T11:32:33;64.68;;;25.88;;
58581;SDS011;44361;51.476;5.700;2022-12-01T11:35:03;61.10;;;25.67;;
58581;SDS011;44361;51.476;5.700;2022-12-01T11:37:36;63.40;;;25.17;;
58581;SDS011;44361;51.476;5.700;2022-12-01T11:42:40;60.42;;;24.25;;
58581;SDS011;44361;51.476;5.700;2022-12-01T11:47:58;61.17;;;25.45;;
58581;SDS011;44361;51.476;5.700;2022-12-01T11:50:29;57.50;;;23.00;;
58581;SDS011;44361;51.476;5.700;2022-12-01T11:52:57;57.28;;;24.77;;
58581;SDS011;44361;51.476;5.700;2022-12-01T11:55:24;61.50;;;25.63;;
58581;SDS011;44361;51.476;5.700;2022-12-01T11:57:52;61.40;;;24.75;;
58581;SDS011;44361;51.476;5.700;2022-12-01T12:00:20;62.60;;;24.52;;
58581;SDS011;44361;51.476;5.700;2022-12-01T12:05:34;53.85;;;23.35;;
58581;SDS011;44361;51.476;5.700;2022-12-01T12:19:43;55.58;;;23.17;;
58581;SDS011;44361;51.476;5.700;2022-12-01T12:22:53;54.30;;;22.77;;
58581;SDS011;44361;51.476;5.700;2022-12-01T12:31:16;56.40;;;22.20;;
58581;SDS011;44361;51.476;5.700;2022-12-01T12:34:06;54.72;;;22.30;;
58581;SDS011;44361;51.476;5.700;2022-12-01T12:37:16;55.05;;;23.67;;
58581;SDS011;44361;51.476;5.700;2022-12-01T12:45:35;53.10;;;22.17;;
58581;SDS011;44361;51.476;5.700;2022-12-01T12:48:35;50.00;;;22.08;;
58581;SDS011;44361;51.476;5.700;2022-12-01T12:51:17;51.22;;;21.38;;
58581;SDS011;44361;51.476;5.700;2022-12-01T12:54:09;53.08;;;21.95;;
58581;SDS011;44361;51.476;5.700;2022-12-01T12:56:42;53.70;;;21.70;;
58581;SDS011;44361;51.476;5.700;2022-12-01T12:59:13;54.67;;;21.58;;
58581;SDS011;44361;51.476;5.700;2022-12-01T13:04:31;55.08;;;21.83;;
58581;SDS011;44361;51.476;5.700;2022-12-01T13:09:59;50.20;;;21.65;;
58581;SDS011;44361;51.476;5.700;2022-12-01T13:12:38;50.38;;;21.83;;
58581;SDS011;44361;51.476;5.700;2022-12-01T13:15:14;50.38;;;21.75;;
58581;SDS011;44361;51.476;5.700;2022-12-01T13:17:46;50.15;;;21.27;;
58581;SDS011;44361;51.476;5.700;2022-12-01T13:20:26;49.75;;;21.77;;
58581;SDS011;44361;51.476;5.700;2022-12-01T13:22:54;52.25;;;21.90;;
58581;SDS011;44361;51.476;5.700;2022-12-01T13:25:55;51.13;;;22.25;;
58581;SDS011;44361;51.476;5.700;2022-12-01T13:28:19;55.17;;;22.40;;
58581;SDS011;44361;51.476;5.700;2022-12-01T13:31:05;56.13;;;22.08;;
58581;SDS011;44361;51.476;5.700;2022-12-01T13:33:32;54.67;;;22.25;;
58581;SDS011;44361;51.476;5.700;2022-12-01T13:35:59;52.33;;;22.45;;
58581;SDS011;44361;51.476;5.700;2022-12-01T13:57:29;55.95;;;24.25;;
58581;SDS011;44361;51.476;5.700;2022-12-01T14:02:22;56.25;;;22.40;;
58581;SDS011;44361;51.476;5.700;2022-12-01T14:04:48;57.75;;;24.30;;
58581;SDS011;44361;51.476;5.700;2022-12-01T14:07:15;54.80;;;23.45;;
58581;SDS011;44361;51.476;5.700;2022-12-01T14:09:47;58.03;;;24.60;;
58581;SDS011;44361;51.476;5.700;2022-12-01T14:12:25;53.80;;;23.58;;
58581;SDS011;44361;51.476;5.700;2022-12-01T14:14:56;56.85;;;24.75;;
58581;SDS011;44361;51.476;5.700;2022-12-01T14:17:35;60.90;;;25.05;;
58581;SDS011;44361;51.476;5.700;2022-12-01T14:20:20;56.80;;;24.13;;
58581;SDS011;44361;51.476;5.700;2022-12-01T14:22:47;57.17;;;25.85;;
58581;SDS011;44361;51.476;5.700;2022-12-01T14:25:28;56.88;;;25.13;;
58581;SDS011;44361;51.476;5.700;2022-12-01T14:27:59;60.08;;;25.23;;
58581;SDS011;44361;51.476;5.700;2022-12-01T14:36:05;60.38;;;25.45;;
58581;SDS011;44361;51.476;5.700;2022-12-01T14:43:58;58.22;;;25.02;;
58581;SDS011;44361;51.476;5.700;2022-12-01T14:46:48;56.80;;;25.25;;
58581;SDS011;44361;51.476;5.700;2022-12-01T14:49:30;60.53;;;24.50;;
58581;SDS011;44361;51.476;5.700;2022-12-01T14:52:08;60.72;;;25.10;;
58581;SDS011;44361;51.476;5.700;2022-12-01T14:54:42;59.63;;;25.25;;
58581;SDS011;44361;51.476;5.700;2022-12-01T14:57:10;58.25;;;23.67;;
58581;SDS011;44361;51.476;5.700;2022-12-01T14:59:37;51.85;;;24.00;;
58581;SDS011;44361;51.476;5.700;2022-12-01T15:02:04;60.58;;;24.10;;
58581;SDS011;44361;51.476;5.700;2022-12-01T15:07:41;67.13;;;25.08;;
58581;SDS011;44361;51.476;5.700;2022-12-01T15:12:53;53.92;;;23.65;;
58581;SDS011;44361;51.476;5.700;2022-12-01T15:15:23;55.50;;;24.08;;
58581;SDS011;44361;51.476;5.700;2022-12-01T15:17:51;52.65;;;23.95;;
58581;SDS011;44361;51.476;5.700;2022-12-01T15:22:56;52.15;;;23.38;;
58581;SDS011;44361;51.476;5.700;2022-12-01T15:25:24;48.70;;;23.67;;
58581;SDS011;44361;51.476;5.700;2022-12-01T15:28:00;51.70;;;23.13;;
58581;SDS011;44361;51.476;5.700;2022-12-01T15:30:28;54.90;;;23.88;;
58581;SDS011;44361;51.476;5.700;2022-12-01T15:32:54;58.08;;;24.05;;
58581;SDS011;44361;51.476;5.700;2022-12-01T15:35:21;55.47;;;23.17;;
58581;SDS011;44361;51.476;5.700;2022-12-01T15:37:47;57.30;;;24.27;;
58581;SDS011;44361;51.476;5.700;2022-12-01T15:40:18;58.50;;;24.27;;
58581;SDS011;44361;51.476;5.700;2022-12-01T15:42:58;63.22;;;25.75;;
58581;SDS011;44361;51.476;5.700;2022-12-01T15:45:28;58.22;;;24.30;;
58581;SDS011;44361;51.476;5.700;2022-12-01T15:48:13;52.70;;;24.50;;
58581;SDS011;44361;51.476;5.700;2022-12-01T15:50:48;63.42;;;26.30;;
58581;SDS011;44361;51.476;5.700;2022-12-01T15:53:29;57.97;;;25.15;;
58581;SDS011;44361;51.476;5.700;2022-12-01T15:55:57;62.80;;;24.92;;
58581;SDS011;44361;51.476;5.700;2022-12-01T15:58:26;60.75;;;25.75;;
58581;SDS011;44361;51.476;5.700;2022-12-01T16:01:19;62.13;;;24.80;;
58581;SDS011;44361;51.476;5.700;2022-12-01T16:06:16;55.58;;;25.05;;
58581;SDS011;44361;51.476;5.700;2022-12-01T16:08:50;56.75;;;25.38;;
58581;SDS011;44361;51.476;5.700;2022-12-01T16:11:20;68.00;;;26.50;;
58581;SDS011;44361;51.476;5.700;2022-12-01T16:13:56;58.20;;;25.02;;
58581;SDS011;44361;51.476;5.700;2022-12-01T16:16:43;67.28;;;26.55;;
58581;SDS011;44361;51.476;5.700;2022-12-01T16:21:52;53.80;;;25.25;;
58581;SDS011;44361;51.476;5.700;2022-12-01T16:24:22;62.53;;;26.45;;
58581;SDS011;44361;51.476;5.700;2022-12-01T16:27:01;61.60;;;25.10;;
58581;SDS011;44361;51.476;5.700;2022-12-01T16:29:50;64.57;;;25.17;;
58581;SDS011;44361;51.476;5.700;2022-12-01T16:32:26;58.63;;;25.98;;
58581;SDS011;44361;51.476;5.700;2022-12-01T16:35:02;64.78;;;26.13;;
58581;SDS011;44361;51.476;5.700;2022-12-01T16:37:29;58.90;;;25.42;;
58581;SDS011;44361;51.476;5.700;2022-12-01T16:39:55;55.75;;;24.45;;
58581;SDS011;44361;51.476;5.700;2022-12-01T16:42:22;58.25;;;23.88;;
58581;SDS011;44361;51.476;5.700;2022-12-01T16:44:48;61.17;;;24.35;;
58581;SDS011;44361;51.476;5.700;2022-12-01T16:47:19;54.70;;;24.15;;
58581;SDS011;44361;51.476;5.700;2022-12-01T16:49:46;61.13;;;24.65;;
58581;SDS011;44361;51.476;5.700;2022-12-01T16:52:12;61.63;;;26.05;;
58581;SDS011;44361;51.476;5.700;2022-12-01T16:54:38;65.82;;;27.08;;
58581;SDS011;44361;51.476;5.700;2022-12-01T16:57:04;57.75;;;25.88;;
58581;SDS011;44361;51.476;5.700;2022-12-01T16:59:30;63.00;;;25.63;;
58581;SDS011;44361;51.476;5.700;2022-12-01T17:01:56;56.88;;;24.75;;